createdAt,value
2023-03-05T00:00:11.408Z,0.00
2023-03-05T00:01:11.360Z,0.00
2023-03-05T00:02:11.412Z,0.00
2023-03-05T00:03:11.391Z,0.00
2023-03-05T00:04:11.341Z,0.00
2023-03-05T00:05:11.320Z,0.00
2023-03-05T00:06:11.310Z,0.00
2023-03-05T00:07:11.310Z,0.00
2023-03-05T00:08:11.285Z,0.00
2023-03-05T00:09:11.291Z,0.00
2023-03-05T00:10:11.286Z,0.00
2023-03-05T00:11:11.256Z,0.00
2023-03-05T00:12:11.237Z,0.00
2023-03-05T00:13:11.226Z,0.00
2023-03-05T00:14:11.215Z,0.00
2023-03-05T00:15:11.212Z,0.00
2023-03-05T00:16:11.281Z,0.00
2023-03-05T00:17:11.180Z,0.00
2023-03-05T00:18:11.180Z,0.00
2023-03-05T00:19:11.169Z,0.00
2023-03-05T00:20:11.163Z,0.00
2023-03-05T00:21:11.140Z,0.00
2023-03-05T00:22:11.125Z,0.00
2023-03-05T00:23:11.138Z,0.00
2023-03-05T00:24:11.157Z,0.00
2023-03-05T00:25:11.101Z,0.00
2023-03-05T00:26:11.087Z,0.00
2023-03-05T00:27:11.082Z,0.00
2023-03-05T00:28:11.063Z,0.00
2023-03-05T00:29:11.070Z,0.00
2023-03-05T00:30:11.057Z,0.00
2023-03-05T00:31:11.113Z,0.00
2023-03-05T00:32:11.079Z,0.00
2023-03-05T00:33:11.015Z,0.00
2023-03-05T00:34:11.005Z,0.00
2023-03-05T00:35:11.010Z,0.00
2023-03-05T00:36:10.978Z,0.00
2023-03-05T00:37:10.973Z,0.00
2023-03-05T00:38:10.960Z,0.00
2023-03-05T00:39:10.966Z,0.00
2023-03-05T00:40:11.015Z,0.00
2023-03-05T00:41:10.926Z,0.00
2023-03-05T00:42:10.918Z,0.00
2023-03-05T00:43:10.902Z,0.00
2023-03-05T00:44:10.896Z,0.00
2023-03-05T00:45:10.894Z,0.00
2023-03-05T00:46:10.896Z,0.00
2023-03-05T00:47:10.860Z,0.00
2023-03-05T00:48:10.849Z,0.00
2023-03-05T00:49:10.853Z,0.00
2023-03-05T00:50:10.845Z,0.00
2023-03-05T00:51:10.816Z,0.00
2023-03-05T00:52:10.805Z,0.00
2023-03-05T00:53:10.797Z,0.00
2023-03-05T00:54:10.791Z,0.00
2023-03-05T00:55:10.806Z,0.00
2023-03-05T00:56:10.761Z,0.00
2023-03-05T00:57:10.756Z,0.00
2023-03-05T00:58:10.754Z,0.00
2023-03-05T00:59:10.729Z,0.00
2023-03-05T01:00:10.747Z,0.00
2023-03-05T01:01:10.730Z,0.00
2023-03-05T01:02:10.695Z,0.00
2023-03-05T01:03:10.680Z,0.00
2023-03-05T01:04:10.673Z,0.00
2023-03-05T01:05:10.714Z,0.00
2023-03-05T01:06:10.645Z,0.00
2023-03-05T01:07:10.630Z,0.00
2023-03-05T01:08:10.625Z,0.00
2023-03-05T01:09:10.612Z,0.00
2023-03-05T01:10:10.617Z,0.00
2023-03-05T01:11:10.607Z,0.00
2023-03-05T01:12:18.499Z,0.00
2023-03-05T01:13:10.560Z,0.00
2023-03-05T01:14:10.587Z,0.00
2023-03-05T01:15:10.552Z,0.00
2023-03-05T01:16:10.583Z,0.00
2023-03-05T01:17:10.522Z,0.00
2023-03-05T01:18:10.506Z,0.00
2023-03-05T01:19:10.500Z,0.00
2023-03-05T01:20:10.493Z,0.00
2023-03-05T01:21:10.475Z,0.00
2023-03-05T01:22:10.462Z,0.00
2023-03-05T01:23:10.447Z,0.00
2023-03-05T01:24:10.432Z,0.00
2023-03-05T01:25:10.443Z,0.00
2023-03-05T01:26:10.409Z,0.00
2023-03-05T01:27:10.423Z,0.00
2023-03-05T01:28:10.389Z,0.00
2023-03-05T01:29:10.376Z,0.00
2023-03-05T01:30:10.415Z,0.00
2023-03-05T01:31:10.373Z,0.00
2023-03-05T01:32:10.379Z,0.00
2023-03-05T01:33:10.335Z,0.00
2023-03-05T01:34:10.321Z,0.00
2023-03-05T01:35:10.344Z,0.00
2023-03-05T01:36:10.305Z,0.00
2023-03-05T01:37:10.298Z,0.00
2023-03-05T01:38:10.284Z,0.00
2023-03-05T01:39:10.274Z,0.00
2023-03-05T01:40:10.288Z,0.00
2023-03-05T01:41:10.253Z,0.00
2023-03-05T01:42:10.252Z,0.00
2023-03-05T01:43:10.254Z,0.00
2023-03-05T01:44:10.221Z,0.00
2023-03-05T01:45:10.281Z,0.00
2023-03-05T01:46:10.230Z,0.00
2023-03-05T01:47:10.182Z,0.00
2023-03-05T01:48:10.180Z,0.00
2023-03-05T01:49:10.163Z,0.00
2023-03-05T01:50:10.184Z,0.00
2023-03-05T01:51:10.141Z,0.00
2023-03-05T01:52:10.139Z,0.00
2023-03-05T01:53:10.118Z,0.00
2023-03-05T01:54:10.130Z,0.00
2023-03-05T01:55:10.115Z,0.00
2023-03-05T01:56:10.086Z,0.00
2023-03-05T01:57:10.086Z,0.00
2023-03-05T01:58:10.064Z,0.00
2023-03-05T01:59:10.107Z,0.00
2023-03-05T02:00:10.064Z,0.00
2023-03-05T02:01:10.072Z,0.00
2023-03-05T02:02:10.018Z,0.00
2023-03-05T02:03:10.011Z,0.00
2023-03-05T02:04:10.104Z,0.00
2023-03-05T02:05:10.010Z,0.00
2023-03-05T02:06:09.987Z,0.00
2023-03-05T02:07:09.964Z,0.00
2023-03-05T02:08:09.963Z,0.00
2023-03-05T02:09:09.942Z,0.00
2023-03-05T02:10:09.957Z,0.00
2023-03-05T02:11:09.929Z,0.00
2023-03-05T02:12:09.914Z,0.00
2023-03-05T02:13:09.900Z,0.00
2023-03-05T02:14:10.347Z,0.00
2023-03-05T02:15:09.921Z,0.00
2023-03-05T02:16:09.900Z,0.00
2023-03-05T02:17:09.860Z,0.00
2023-03-05T02:18:09.863Z,0.00
2023-03-05T02:19:09.836Z,0.00
2023-03-05T02:20:09.858Z,0.00
2023-03-05T02:21:09.828Z,0.00
2023-03-05T02:22:09.815Z,0.00
2023-03-05T02:23:09.792Z,0.00
2023-03-05T02:24:09.793Z,0.00
2023-03-05T02:25:09.790Z,0.00
2023-03-05T02:26:09.773Z,0.00
2023-03-05T02:27:09.759Z,0.00
2023-03-05T02:28:09.750Z,0.00
2023-03-05T02:29:09.735Z,0.00
2023-03-05T02:30:09.746Z,0.00
2023-03-05T02:31:09.731Z,0.00
2023-03-05T02:32:09.872Z,0.00
2023-03-05T02:33:09.696Z,0.00
2023-03-05T02:34:09.682Z,0.00
2023-03-05T02:35:09.682Z,0.00
2023-03-05T02:36:09.657Z,0.00
2023-03-05T02:37:09.647Z,0.00
2023-03-05T02:38:09.637Z,0.00
2023-03-05T02:39:09.641Z,0.00
2023-03-05T02:40:09.639Z,0.00
2023-03-05T02:41:09.612Z,0.00
2023-03-05T02:42:09.594Z,0.00
2023-03-05T02:43:09.585Z,0.00
2023-03-05T02:44:09.573Z,0.00
2023-03-05T02:45:09.560Z,0.00
2023-03-05T02:46:09.670Z,0.00
2023-03-05T02:47:09.566Z,0.00
2023-03-05T02:48:09.541Z,0.00
2023-03-05T02:49:09.520Z,0.00
2023-03-05T02:50:09.518Z,0.00
2023-03-05T02:51:09.524Z,0.00
2023-03-05T02:52:09.528Z,0.00
2023-03-05T02:53:09.474Z,0.00
2023-03-05T02:54:09.510Z,0.00
2023-03-05T02:55:09.478Z,0.00
2023-03-05T02:56:09.469Z,0.00
2023-03-05T02:57:09.438Z,0.00
2023-03-05T02:58:09.433Z,0.00
2023-03-05T02:59:09.456Z,0.00
2023-03-05T03:00:09.497Z,0.00
2023-03-05T03:01:09.487Z,0.00
2023-03-05T03:02:09.380Z,0.00
2023-03-05T03:03:09.483Z,0.00
2023-03-05T03:04:09.362Z,0.00
2023-03-05T03:05:09.350Z,0.00
2023-03-05T03:06:09.349Z,0.00
2023-03-05T03:07:09.328Z,0.00
2023-03-05T03:08:09.315Z,0.00
2023-03-05T03:09:09.302Z,0.00
2023-03-05T03:10:09.330Z,0.00
2023-03-05T03:11:09.334Z,0.00
2023-03-05T03:12:09.270Z,0.00
2023-03-05T03:13:09.262Z,0.00
2023-03-05T03:14:09.253Z,0.00
2023-03-05T03:15:09.240Z,0.00
2023-03-05T03:16:09.263Z,0.00
2023-03-05T03:17:09.217Z,0.00
2023-03-05T03:18:09.207Z,0.00
2023-03-05T03:19:09.218Z,0.00
2023-03-05T03:20:09.206Z,0.00
2023-03-05T03:21:09.192Z,0.00
2023-03-05T03:22:09.181Z,0.00
2023-03-05T03:23:09.154Z,0.00
2023-03-05T03:24:09.147Z,0.00
2023-03-05T03:25:09.135Z,0.00
2023-03-05T03:26:09.139Z,0.00
2023-03-05T03:27:09.119Z,0.00
2023-03-05T03:28:09.105Z,0.00
2023-03-05T03:29:09.108Z,0.00
2023-03-05T03:30:09.091Z,0.00
2023-03-05T03:31:09.149Z,0.00
2023-03-05T03:32:09.149Z,0.00
2023-03-05T03:33:09.056Z,0.00
2023-03-05T03:34:09.046Z,0.00
2023-03-05T03:35:09.065Z,0.00
2023-03-05T03:36:09.038Z,0.00
2023-03-05T03:37:09.021Z,0.00
2023-03-05T03:38:09.000Z,0.00
2023-03-05T03:39:08.997Z,0.00
2023-03-05T03:40:08.972Z,0.00
2023-03-05T03:41:08.995Z,0.00
2023-03-05T03:42:08.965Z,0.00
2023-03-05T03:43:08.948Z,0.00
2023-03-05T03:44:08.926Z,0.00
2023-03-05T03:45:08.924Z,0.00
2023-03-05T03:46:09.024Z,0.00
2023-03-05T03:47:08.903Z,0.00
2023-03-05T03:48:08.888Z,0.00
2023-03-05T03:49:08.879Z,0.00
2023-03-05T03:50:08.870Z,0.00
2023-03-05T03:51:08.901Z,0.00
2023-03-05T03:52:08.843Z,0.00
2023-03-05T03:53:08.851Z,0.00
2023-03-05T03:54:08.831Z,0.00
2023-03-05T03:55:08.814Z,0.00
2023-03-05T03:56:08.837Z,0.00
2023-03-05T03:57:08.798Z,0.00
2023-03-05T03:58:08.780Z,0.00
2023-03-05T03:59:08.775Z,0.00
2023-03-05T04:00:08.767Z,0.00
2023-03-05T04:01:08.768Z,0.00
2023-03-05T04:02:08.767Z,0.00
2023-03-05T04:03:08.728Z,0.00
2023-03-05T04:04:08.861Z,0.00
2023-03-05T04:05:08.726Z,0.00
2023-03-05T04:06:08.716Z,0.00
2023-03-05T04:07:08.701Z,0.00
2023-03-05T04:08:08.673Z,0.00
2023-03-05T04:09:08.683Z,0.00
2023-03-05T04:10:08.661Z,0.00
2023-03-05T04:11:08.656Z,0.00
2023-03-05T04:12:08.635Z,0.00
2023-03-05T04:13:08.658Z,0.00
2023-03-05T04:14:08.611Z,0.00
2023-03-05T04:15:08.606Z,0.00
2023-03-05T04:16:08.645Z,0.00
2023-03-05T04:17:08.589Z,0.00
2023-03-05T04:18:08.568Z,0.00
2023-03-05T04:19:08.560Z,0.00
2023-03-05T04:20:08.553Z,0.00
2023-03-05T04:21:08.585Z,0.00
2023-03-05T04:22:08.525Z,0.00
2023-03-05T04:23:08.541Z,0.00
2023-03-05T04:24:08.501Z,0.00
2023-03-05T04:25:08.578Z,0.00
2023-03-05T04:26:08.506Z,0.00
2023-03-05T04:27:08.470Z,0.00
2023-03-05T04:28:08.460Z,0.00
2023-03-05T04:29:08.457Z,0.00
2023-03-05T04:30:08.437Z,0.00
2023-03-05T04:31:08.450Z,0.00
2023-03-05T04:32:08.461Z,0.00
2023-03-05T04:33:08.420Z,0.00
2023-03-05T04:34:08.392Z,0.00
2023-03-05T04:35:08.384Z,0.00
2023-03-05T04:36:08.392Z,0.00
2023-03-05T04:37:08.368Z,0.00
2023-03-05T04:38:08.350Z,0.00
2023-03-05T04:39:08.365Z,0.00
2023-03-05T04:40:08.347Z,0.00
2023-03-05T04:41:08.338Z,0.00
2023-03-05T04:42:08.306Z,0.00
2023-03-05T04:43:08.294Z,0.00
2023-03-05T04:44:08.279Z,0.00
2023-03-05T04:45:08.277Z,0.00
2023-03-05T04:46:08.329Z,0.00
2023-03-05T04:47:08.249Z,0.00
2023-03-05T04:48:08.245Z,0.00
2023-03-05T04:49:08.231Z,0.00
2023-03-05T04:50:08.241Z,0.00
2023-03-05T04:51:08.257Z,0.00
2023-03-05T04:52:08.200Z,0.00
2023-03-05T04:53:08.190Z,0.00
2023-03-05T04:54:08.173Z,0.00
2023-03-05T04:55:08.187Z,0.00
2023-03-05T04:56:08.177Z,0.00
2023-03-05T04:57:08.146Z,0.00
2023-03-05T04:58:08.135Z,0.00
2023-03-05T04:59:08.124Z,0.00
2023-03-05T05:00:08.117Z,0.00
2023-03-05T05:01:08.124Z,0.00
2023-03-05T05:02:08.105Z,0.00
2023-03-05T05:03:08.138Z,0.00
2023-03-05T05:04:08.072Z,0.00
2023-03-05T05:05:08.065Z,0.00
2023-03-05T05:06:08.076Z,0.00
2023-03-05T05:07:08.052Z,0.00
2023-03-05T05:08:08.039Z,0.00
2023-03-05T05:09:08.016Z,0.00
2023-03-05T05:10:08.018Z,0.00
2023-03-05T05:11:08.045Z,4.00
2023-03-05T05:12:07.994Z,4.00
2023-03-05T05:13:07.979Z,0.00
2023-03-05T05:14:07.973Z,0.00
2023-03-05T05:15:07.957Z,4.00
2023-03-05T05:16:08.084Z,4.00
2023-03-05T05:17:07.936Z,4.00
2023-03-05T05:18:07.928Z,0.00
2023-03-05T05:19:08.009Z,4.00
2023-03-05T05:20:07.910Z,8.00
2023-03-05T05:21:07.909Z,4.00
2023-03-05T05:22:07.880Z,8.00
2023-03-05T05:23:07.870Z,8.00
2023-03-05T05:24:07.879Z,12.00
2023-03-05T05:25:07.879Z,16.00
2023-03-05T05:26:07.850Z,12.00
2023-03-05T05:27:07.849Z,16.00
2023-03-05T05:28:07.818Z,20.00
2023-03-05T05:29:07.818Z,24.00
2023-03-05T05:30:07.831Z,28.00
2023-03-05T05:31:07.879Z,32.00
2023-03-05T05:32:07.845Z,36.00
2023-03-05T05:33:07.769Z,44.00
2023-03-05T05:34:07.758Z,48.00
2023-03-05T05:35:07.752Z,56.00
2023-03-05T05:36:07.759Z,60.00
2023-03-05T05:37:07.725Z,72.00
2023-03-05T05:38:07.719Z,76.00
2023-03-05T05:39:07.701Z,80.00
2023-03-05T05:40:07.691Z,88.00
2023-03-05T05:41:07.726Z,92.00
2023-03-05T05:42:07.676Z,96.00
2023-03-05T05:43:07.692Z,104.00
2023-03-05T05:44:07.651Z,112.00
2023-03-05T05:45:07.730Z,120.00
2023-03-05T05:46:07.791Z,128.00
2023-03-05T05:47:07.616Z,140.00
2023-03-05T05:48:07.614Z,152.00
2023-03-05T05:49:07.597Z,168.00
2023-03-05T05:50:07.584Z,184.00
2023-03-05T05:51:07.594Z,204.00
2023-03-05T05:52:07.563Z,224.00
2023-03-05T05:53:07.558Z,244.00
2023-03-05T05:54:07.543Z,268.00
2023-03-05T05:55:07.532Z,288.00
2023-03-05T05:56:07.537Z,312.00
2023-03-05T05:57:07.519Z,324.00
2023-03-05T05:58:07.498Z,344.00
2023-03-05T05:59:07.514Z,360.00
2023-03-05T06:00:07.475Z,384.00
2023-03-05T06:01:07.481Z,404.00
2023-03-05T06:02:07.512Z,424.00
2023-03-05T06:03:07.465Z,444.00
2023-03-05T06:04:07.434Z,460.00
2023-03-05T06:05:07.424Z,472.00
2023-03-05T06:06:07.431Z,492.00
2023-03-05T06:07:07.412Z,500.00
2023-03-05T06:08:07.393Z,508.00
2023-03-05T06:09:07.386Z,516.00
2023-03-05T06:10:07.400Z,552.00
2023-03-05T06:11:07.371Z,648.00
2023-03-05T06:12:07.368Z,744.00
2023-03-05T06:13:07.340Z,776.00
2023-03-05T06:14:07.333Z,824.00
2023-03-05T06:15:07.338Z,1052.00
2023-03-05T06:16:07.367Z,952.00
2023-03-05T06:17:07.298Z,872.00
2023-03-05T06:18:07.284Z,900.00
2023-03-05T06:19:07.285Z,920.00
2023-03-05T06:20:07.259Z,976.00
2023-03-05T06:21:07.271Z,1012.00
2023-03-05T06:22:07.245Z,1008.00
2023-03-05T06:23:07.235Z,1012.00
2023-03-05T06:24:07.224Z,988.00
2023-03-05T06:25:07.211Z,936.00
2023-03-05T06:26:07.229Z,912.00
2023-03-05T06:27:07.190Z,920.00
2023-03-05T06:28:07.179Z,936.00
2023-03-05T06:29:07.173Z,956.00
2023-03-05T06:30:07.161Z,956.00
2023-03-05T06:31:07.231Z,944.00
2023-03-05T06:32:07.173Z,952.00
2023-03-05T06:33:07.212Z,996.00
2023-03-05T06:34:07.115Z,1604.00
2023-03-05T06:35:07.111Z,1224.00
2023-03-05T06:36:07.116Z,996.00
2023-03-05T06:37:07.087Z,988.00
2023-03-05T06:38:07.074Z,980.00
2023-03-05T06:39:07.066Z,984.00
2023-03-05T06:40:07.050Z,1016.00
2023-03-05T06:41:07.066Z,1104.00
2023-03-05T06:42:07.034Z,1212.00
2023-03-05T06:43:07.021Z,1372.00
2023-03-05T06:44:07.015Z,1572.00
2023-03-05T06:45:07.006Z,1708.00
2023-03-05T06:46:07.049Z,1772.00
2023-03-05T06:47:07.009Z,1888.00
2023-03-05T06:48:06.963Z,1904.00
2023-03-05T06:49:06.980Z,1920.00
2023-03-05T06:50:06.954Z,1956.00
2023-03-05T06:51:06.931Z,1960.00
2023-03-05T06:52:06.939Z,1952.00
2023-03-05T06:53:06.916Z,1808.00
2023-03-05T06:54:06.898Z,1608.00
2023-03-05T06:55:06.891Z,1476.00
2023-03-05T06:56:06.877Z,1412.00
2023-03-05T06:57:06.880Z,1380.00
2023-03-05T06:58:06.876Z,1420.00
2023-03-05T06:59:06.855Z,1480.00
2023-03-05T07:00:06.833Z,1524.00
2023-03-05T07:01:06.843Z,1492.00
2023-03-05T07:02:06.889Z,1484.00
2023-03-05T07:03:06.834Z,1412.00
2023-03-05T07:04:06.813Z,1320.00
2023-03-05T07:05:06.790Z,1260.00
2023-03-05T07:06:06.767Z,1212.00
2023-03-05T07:07:06.776Z,1156.00
2023-03-05T07:08:06.749Z,1136.00
2023-03-05T07:09:06.746Z,1184.00
2023-03-05T07:10:06.725Z,1424.00
2023-03-05T07:11:06.717Z,1784.00
2023-03-05T07:12:06.732Z,2128.00
2023-03-05T07:13:14.577Z,2360.00
2023-03-05T07:14:06.684Z,2568.00
2023-03-05T07:15:06.674Z,2600.00
2023-03-05T07:16:06.684Z,2576.00
2023-03-05T07:17:06.670Z,2572.00
2023-03-05T07:18:06.660Z,2476.00
2023-03-05T07:19:06.654Z,2268.00
2023-03-05T07:20:06.623Z,2020.00
2023-03-05T07:21:06.609Z,1876.00
2023-03-05T07:22:06.611Z,1796.00
2023-03-05T07:23:06.597Z,1820.00
2023-03-05T07:24:06.592Z,1896.00
2023-03-05T07:25:06.567Z,1944.00
2023-03-05T07:26:06.556Z,2060.00
2023-03-05T07:27:06.556Z,2164.00
2023-03-05T07:28:06.534Z,2208.00
2023-03-05T07:29:06.524Z,2316.00
2023-03-05T07:30:06.512Z,2304.00
2023-03-05T07:31:06.605Z,2212.00
2023-03-05T07:32:06.540Z,2076.00
2023-03-05T07:33:06.496Z,1832.00
2023-03-05T07:34:06.485Z,1592.00
2023-03-05T07:35:06.484Z,1464.00
2023-03-05T07:36:06.445Z,1524.00
2023-03-05T07:37:06.472Z,1740.00
2023-03-05T07:38:06.466Z,2008.00
2023-03-05T07:39:06.481Z,2240.00
2023-03-05T07:40:06.403Z,2304.00
2023-03-05T07:41:06.394Z,2208.00
2023-03-05T07:42:06.423Z,2196.00
2023-03-05T07:43:06.376Z,2252.00
2023-03-05T07:44:06.363Z,2252.00
2023-03-05T07:45:06.358Z,2288.00
2023-03-05T07:46:06.403Z,2496.00
2023-03-05T07:47:06.347Z,2480.00
2023-03-05T07:48:06.321Z,2396.00
2023-03-05T07:49:06.311Z,2292.00
2023-03-05T07:50:06.301Z,2264.00
2023-03-05T07:51:06.307Z,2416.00
2023-03-05T07:52:06.306Z,2752.00
2023-03-05T07:53:06.265Z,2928.00
2023-03-05T07:54:06.256Z,2820.00
2023-03-05T07:55:06.243Z,2556.00
2023-03-05T07:56:06.233Z,2292.00
2023-03-05T07:57:06.237Z,2316.00
2023-03-05T07:58:06.212Z,2584.00
2023-03-05T07:59:06.220Z,3176.00
2023-03-05T08:00:06.189Z,3984.00
2023-03-05T08:01:06.178Z,4192.00
2023-03-05T08:02:06.229Z,4104.00
2023-03-05T08:03:06.180Z,4216.00
2023-03-05T08:04:06.239Z,4528.00
2023-03-05T08:05:06.143Z,5016.00
2023-03-05T08:06:06.125Z,5932.00
2023-03-05T08:07:06.144Z,7316.00
2023-03-05T08:08:06.109Z,11480.00
2023-03-05T08:09:06.089Z,20000.00
2023-03-05T08:10:06.142Z,20832.00
2023-03-05T08:11:06.072Z,19072.00
2023-03-05T08:12:06.073Z,15036.00
2023-03-05T08:13:06.049Z,19584.00
2023-03-05T08:14:06.043Z,18400.00
2023-03-05T08:15:06.063Z,23424.00
2023-03-05T08:16:06.081Z,30496.00
2023-03-05T08:17:06.154Z,26080.00
2023-03-05T08:18:06.002Z,25056.00
2023-03-05T08:19:05.984Z,28256.00
2023-03-05T08:20:05.975Z,30912.00
2023-03-05T08:21:05.964Z,36992.00
2023-03-05T08:22:05.971Z,39552.00
2023-03-05T08:23:05.977Z,53824.00
2023-03-05T08:24:05.952Z,36544.00
2023-03-05T08:25:05.921Z,26336.00
2023-03-05T08:26:05.910Z,40928.00
2023-03-05T08:27:05.895Z,43552.00
2023-03-05T08:28:05.908Z,47136.00
2023-03-05T08:29:05.874Z,36320.00
2023-03-05T08:30:05.875Z,43520.00
2023-03-05T08:31:05.910Z,56736.00
2023-03-05T08:32:05.853Z,49888.00
2023-03-05T08:33:05.849Z,38048.00
2023-03-05T08:34:05.827Z,60672.00
2023-03-05T08:35:05.809Z,51648.00
2023-03-05T08:36:05.800Z,30336.00
2023-03-05T08:37:05.786Z,20544.00
2023-03-05T08:38:05.827Z,43040.00
2023-03-05T08:39:05.782Z,28704.00
2023-03-05T08:40:05.754Z,18016.00
2023-03-05T08:41:05.748Z,14316.00
2023-03-05T08:42:08.610Z,12460.00
2023-03-05T08:43:05.773Z,12056.00
2023-03-05T08:44:05.708Z,9592.00
2023-03-05T08:45:05.695Z,8392.00
2023-03-05T08:46:05.685Z,8044.00
2023-03-05T08:47:05.686Z,8516.00
2023-03-05T08:48:05.670Z,8700.00
2023-03-05T08:49:05.656Z,18400.00
2023-03-05T08:50:05.664Z,10468.00
2023-03-05T08:51:05.657Z,6932.00
2023-03-05T08:52:05.647Z,7812.00
2023-03-05T08:53:05.610Z,23296.00
2023-03-05T08:54:05.602Z,12800.00
2023-03-05T08:55:05.626Z,6604.00
2023-03-05T08:56:05.579Z,7080.00
2023-03-05T08:57:05.578Z,7604.00
2023-03-05T08:58:05.560Z,8364.00
2023-03-05T08:59:05.553Z,7880.00
2023-03-05T09:00:05.536Z,6980.00
2023-03-05T09:01:05.539Z,7284.00
2023-03-05T09:02:05.621Z,7484.00
2023-03-05T09:03:05.522Z,12264.00
2023-03-05T09:04:05.493Z,45504.00
2023-03-05T09:05:05.480Z,56736.00
2023-03-05T09:06:05.502Z,56704.00
2023-03-05T09:07:05.469Z,12512.00
2023-03-05T09:08:05.454Z,38688.00
2023-03-05T09:09:05.444Z,46112.00
2023-03-05T09:10:05.425Z,43552.00
2023-03-05T09:11:05.445Z,25024.00
2023-03-05T09:12:05.418Z,21184.00
2023-03-05T09:13:05.413Z,15240.00
2023-03-05T09:14:05.382Z,12584.00
2023-03-05T09:15:05.373Z,11972.00
2023-03-05T09:16:05.419Z,9700.00
2023-03-05T09:17:05.398Z,7476.00
2023-03-05T09:18:05.348Z,6060.00
2023-03-05T09:19:05.326Z,5484.00
2023-03-05T09:20:05.315Z,4904.00
2023-03-05T09:21:05.348Z,4360.00
2023-03-05T09:22:05.317Z,4012.00
2023-03-05T09:23:05.283Z,3912.00
2023-03-05T09:24:05.274Z,3628.00
2023-03-05T09:25:05.276Z,2632.00
2023-03-05T09:26:05.250Z,2284.00
2023-03-05T09:27:05.282Z,2380.00
2023-03-05T09:28:05.232Z,2480.00
2023-03-05T09:29:05.215Z,2128.00
2023-03-05T09:30:05.210Z,2464.00
2023-03-05T09:31:05.204Z,2520.00
2023-03-05T09:32:05.329Z,2000.00
2023-03-05T09:33:05.176Z,1816.00
2023-03-05T09:34:05.163Z,1808.00
2023-03-05T09:35:05.151Z,1768.00
2023-03-05T09:36:05.140Z,2624.00
2023-03-05T09:37:05.157Z,3016.00
2023-03-05T09:38:05.151Z,2568.00
2023-03-05T09:39:05.125Z,2568.00
2023-03-05T09:40:05.137Z,2532.00
2023-03-05T09:41:05.107Z,2252.00
2023-03-05T09:42:05.076Z,1952.00
2023-03-05T09:43:05.098Z,1828.00
2023-03-05T09:44:05.059Z,1932.00
2023-03-05T09:45:05.043Z,2072.00
2023-03-05T09:46:05.059Z,2248.00
2023-03-05T09:47:05.016Z,3056.00
2023-03-05T09:48:05.028Z,3972.00
2023-03-05T09:49:04.996Z,5288.00
2023-03-05T09:50:04.990Z,5820.00
2023-03-05T09:51:04.983Z,5980.00
2023-03-05T09:52:05.040Z,5452.00
2023-03-05T09:53:04.967Z,4876.00
2023-03-05T09:54:04.944Z,4580.00
2023-03-05T09:55:04.932Z,4428.00
2023-03-05T09:56:04.928Z,5152.00
2023-03-05T09:57:04.912Z,6512.00
2023-03-05T09:58:04.920Z,7260.00
2023-03-05T09:59:04.907Z,5944.00
2023-03-05T10:00:04.882Z,4752.00
2023-03-05T10:01:04.872Z,4488.00
2023-03-05T10:02:04.857Z,4264.00
2023-03-05T10:03:04.881Z,3944.00
2023-03-05T10:04:04.897Z,3548.00
2023-03-05T10:05:04.823Z,3256.00
2023-03-05T10:06:04.819Z,2956.00
2023-03-05T10:07:04.802Z,2708.00
2023-03-05T10:08:04.807Z,2408.00
2023-03-05T10:09:04.792Z,2196.00
2023-03-05T10:10:04.773Z,2040.00
2023-03-05T10:11:04.759Z,1844.00
2023-03-05T10:12:04.753Z,1816.00
2023-03-05T10:13:04.752Z,1800.00
2023-03-05T10:14:04.801Z,1884.00
2023-03-05T10:15:04.742Z,2636.00
2023-03-05T10:16:04.711Z,3860.00
2023-03-05T10:17:04.698Z,5216.00
2023-03-05T10:18:04.684Z,4440.00
2023-03-05T10:19:04.699Z,3612.00
2023-03-05T10:20:04.664Z,3012.00
2023-03-05T10:21:04.650Z,2672.00
2023-03-05T10:22:04.642Z,2372.00
2023-03-05T10:23:04.643Z,2076.00
2023-03-05T10:24:04.621Z,1932.00
2023-03-05T10:25:04.606Z,1956.00
2023-03-05T10:26:04.599Z,1852.00
2023-03-05T10:27:04.618Z,1720.00
2023-03-05T10:28:04.589Z,1588.00
2023-03-05T10:29:04.571Z,1476.00
2023-03-05T10:30:04.554Z,1344.00
2023-03-05T10:31:04.559Z,1340.00
2023-03-05T10:32:04.612Z,1356.00
2023-03-05T10:33:04.533Z,1396.00
2023-03-05T10:34:04.532Z,1360.00
2023-03-05T10:35:04.501Z,1364.00
2023-03-05T10:36:04.488Z,1480.00
2023-03-05T10:37:04.477Z,1528.00
2023-03-05T10:38:04.482Z,1816.00
2023-03-05T10:39:04.695Z,2204.00
2023-03-05T10:40:04.453Z,2584.00
2023-03-05T10:41:04.445Z,2928.00
2023-03-05T10:42:04.425Z,3388.00
2023-03-05T10:43:04.422Z,3688.00
2023-03-05T10:44:04.428Z,3600.00
2023-03-05T10:45:04.394Z,5052.00
2023-03-05T10:46:04.459Z,5156.00
2023-03-05T10:47:04.387Z,4308.00
2023-03-05T10:48:04.363Z,3940.00
2023-03-05T10:49:04.366Z,3552.00
2023-03-05T10:50:04.339Z,3408.00
2023-03-05T10:51:04.329Z,3256.00
2023-03-05T10:52:04.333Z,2844.00
2023-03-05T10:53:04.319Z,2556.00
2023-03-05T10:54:04.297Z,1980.00
2023-03-05T10:55:04.304Z,1636.00
2023-03-05T10:56:04.282Z,1480.00
2023-03-05T10:57:04.264Z,1484.00
2023-03-05T10:58:04.302Z,1700.00
2023-03-05T10:59:04.246Z,1700.00
2023-03-05T11:00:04.244Z,1640.00
2023-03-05T11:01:04.445Z,1564.00
2023-03-05T11:02:04.258Z,1364.00
2023-03-05T11:03:04.302Z,1252.00
2023-03-05T11:04:04.190Z,1236.00
2023-03-05T11:05:05.244Z,1284.00
2023-03-05T11:06:04.162Z,1292.00
2023-03-05T11:07:04.162Z,1284.00
2023-03-05T11:08:04.168Z,1288.00
2023-03-05T11:09:04.131Z,1412.00
2023-03-05T11:10:04.114Z,1484.00
2023-03-05T11:11:04.232Z,1356.00
2023-03-05T11:12:04.096Z,1228.00
2023-03-05T11:13:04.116Z,1180.00
2023-03-05T11:14:04.082Z,1400.00
2023-03-05T11:15:04.116Z,1880.00
2023-03-05T11:16:04.106Z,2224.00
2023-03-05T11:17:04.044Z,2124.00
2023-03-05T11:18:04.053Z,2336.00
2023-03-05T11:19:04.074Z,2828.00
2023-03-05T11:20:04.054Z,3380.00
2023-03-05T11:21:04.023Z,4056.00
2023-03-05T11:22:03.997Z,4112.00
2023-03-05T11:23:03.996Z,3872.00
2023-03-05T11:24:03.983Z,3568.00
2023-03-05T11:25:03.971Z,3172.00
2023-03-05T11:26:03.944Z,2876.00
2023-03-05T11:27:03.935Z,2644.00
2023-03-05T11:28:03.947Z,2412.00
2023-03-05T11:29:03.911Z,2256.00
2023-03-05T11:30:03.918Z,2232.00
2023-03-05T11:31:04.023Z,2188.00
2023-03-05T11:32:03.899Z,2100.00
2023-03-05T11:33:03.879Z,1972.00
2023-03-05T11:34:03.860Z,1860.00
2023-03-05T11:35:03.882Z,1772.00
2023-03-05T11:36:03.838Z,1704.00
2023-03-05T11:37:03.908Z,1648.00
2023-03-05T11:38:03.830Z,1636.00
2023-03-05T11:39:03.802Z,1680.00
2023-03-05T11:40:03.793Z,1756.00
2023-03-05T11:41:03.777Z,1712.00
2023-03-05T11:42:03.796Z,1728.00
2023-03-05T11:43:03.787Z,2024.00
2023-03-05T11:44:03.758Z,2668.00
2023-03-05T11:45:03.748Z,3420.00
2023-03-05T11:46:03.817Z,4632.00
2023-03-05T11:47:03.714Z,5232.00
2023-03-05T11:48:03.722Z,5296.00
2023-03-05T11:49:03.696Z,6100.00
2023-03-05T11:50:03.684Z,5956.00
2023-03-05T11:51:03.691Z,5304.00
2023-03-05T11:52:03.665Z,4524.00
2023-03-05T11:53:03.665Z,3820.00
2023-03-05T11:54:03.642Z,3380.00
2023-03-05T11:55:03.640Z,2920.00
2023-03-05T11:56:03.641Z,2516.00
2023-03-05T11:57:03.608Z,2280.00
2023-03-05T11:58:03.612Z,2168.00
2023-03-05T11:59:03.592Z,2032.00
2023-03-05T12:00:03.582Z,2032.00
2023-03-05T12:01:03.614Z,1896.00
2023-03-05T12:02:03.573Z,1716.00
2023-03-05T12:03:03.655Z,1648.00
2023-03-05T12:04:03.559Z,1564.00
2023-03-05T12:05:03.527Z,1648.00
2023-03-05T12:06:03.516Z,1820.00
2023-03-05T12:07:03.546Z,1852.00
2023-03-05T12:08:03.542Z,1940.00
2023-03-05T12:09:03.485Z,1688.00
2023-03-05T12:10:03.496Z,1520.00
2023-03-05T12:11:03.464Z,1724.00
2023-03-05T12:12:03.487Z,2244.00
2023-03-05T12:13:03.444Z,2952.00
2023-03-05T12:14:03.434Z,3328.00
2023-03-05T12:15:03.439Z,3132.00
2023-03-05T12:16:03.421Z,3484.00
2023-03-05T12:17:03.400Z,3964.00
2023-03-05T12:18:03.406Z,4236.00
2023-03-05T12:19:03.380Z,4628.00
2023-03-05T12:20:03.380Z,4980.00
2023-03-05T12:21:03.360Z,5472.00
2023-03-05T12:22:03.344Z,5984.00
2023-03-05T12:23:03.380Z,6148.00
2023-03-05T12:24:03.336Z,6464.00
2023-03-05T12:25:03.335Z,6792.00
2023-03-05T12:26:03.305Z,6476.00
2023-03-05T12:27:03.369Z,5988.00
2023-03-05T12:28:03.329Z,5616.00
2023-03-05T12:29:03.280Z,5324.00
2023-03-05T12:30:03.274Z,5228.00
2023-03-05T12:31:03.264Z,5492.00
2023-03-05T12:32:03.281Z,5744.00
2023-03-05T12:33:03.267Z,5812.00
2023-03-05T12:34:03.567Z,5872.00
2023-03-05T12:35:03.213Z,5912.00
2023-03-05T12:36:03.267Z,5748.00